Time;durP1;ratioP1;P1;durP2;ratioP2;P2;SDS_P1;SDS_P2;PMS_P1;PMS_P2;Temp;Humidity;BMP_temperature;BMP_pressure;BME280_temperature;BME280_humidity;BME280_pressure;Samples;Min_cycle;Max_cycle;Signal;HPM_P1;HPM_P2
2022/08/19 00:01:30;;;;;;;11.80;8.00;;;15.90;99.90;;;;;;5112227;28;20043;-70
2022/08/19 00:04:01;;;;;;;12.30;8.23;;;15.90;99.90;;;;;;5113315;28;20486;-69
2022/08/19 00:06:28;;;;;;;13.38;8.18;;;15.90;99.90;;;;;;5130985;27;20039;-69
2022/08/19 00:08:55;;;;;;;11.13;7.90;;;15.90;99.90;;;;;;5115579;27;20039;-70
2022/08/19 00:11:21;;;;;;;19.27;8.70;;;15.90;99.90;;;;;;5133909;27;20046;-70
2022/08/19 00:13:49;;;;;;;11.65;7.90;;;15.90;99.90;;;;;;5133331;27;20544;-69
2022/08/19 00:16:19;;;;;;;14.82;8.70;;;15.80;99.90;;;;;;5130435;27;20088;-70
2022/08/19 00:18:44;;;;;;;13.02;8.00;;;15.90;99.90;;;;;;5113189;28;20490;-68
2022/08/19 00:21:10;;;;;;;12.52;8.43;;;15.90;99.90;;;;;;5113647;27;20049;-70
2022/08/19 00:23:36;;;;;;;11.05;8.23;;;15.80;99.90;;;;;;5111932;28;20036;-69
2022/08/19 00:26:04;;;;;;;13.63;8.50;;;15.80;99.90;;;;;;5111456;28;20517;-70
2022/08/19 00:28:30;;;;;;;10.63;7.82;;;15.80;99.90;;;;;;5113869;28;20052;-70
2022/08/19 00:30:56;;;;;;;14.52;8.73;;;15.80;99.90;;;;;;5133972;27;20050;-69
2022/08/19 00:33:23;;;;;;;16.90;9.30;;;15.70;99.90;;;;;;5133503;27;20039;-70
2022/08/19 00:35:49;;;;;;;15.07;9.38;;;15.70;99.90;;;;;;5133494;27;20103;-69
2022/08/19 00:38:14;;;;;;;14.13;9.02;;;15.70;99.90;;;;;;5132907;27;20444;-69
2022/08/19 00:40:46;;;;;;;14.85;8.55;;;15.70;99.90;;;;;;5132131;27;20039;-69
2022/08/19 00:43:15;;;;;;;14.70;8.85;;;15.70;99.90;;;;;;5129267;27;20043;-72
2022/08/19 00:45:43;;;;;;;14.75;8.98;;;15.70;99.90;;;;;;5132046;27;20071;-69
2022/08/19 00:48:09;;;;;;;19.17;10.23;;;15.60;99.90;;;;;;5132839;27;20512;-69
2022/08/19 00:50:35;;;;;;;13.50;9.35;;;15.60;99.90;;;;;;5133206;27;20152;-69
2022/08/19 00:53:03;;;;;;;14.27;9.13;;;15.60;99.90;;;;;;5133233;27;20043;-70
2022/08/19 00:55:31;;;;;;;15.95;9.45;;;15.60;99.90;;;;;;5115543;27;20036;-70
2022/08/19 00:58:06;;;;;;;;;;;15.60;99.90;;;;;;5112166;28;20059;-70
2022/08/19 01:00:36;;;;;;;18.00;10.15;;;15.60;99.90;;;;;;5116233;28;19920;-70
2022/08/19 01:03:06;;;;;;;13.60;10.25;;;15.60;99.90;;;;;;5112745;28;20062;-70
2022/08/19 01:05:32;;;;;;;14.15;9.30;;;15.60;99.90;;;;;;5112613;28;20040;-70
2022/08/19 01:08:00;;;;;;;12.65;9.68;;;15.50;99.90;;;;;;5128916;28;20043;-71
2022/08/19 01:10:28;;;;;;;14.13;10.82;;;15.50;99.90;;;;;;5114708;28;20043;-70
2022/08/19 01:12:57;;;;;;;15.57;10.98;;;15.50;99.90;;;;;;5132947;27;20042;-70
2022/08/19 01:15:29;;;;;;;16.27;10.23;;;15.50;99.90;;;;;;5131787;28;20043;-70
2022/08/19 01:17:56;;;;;;;16.48;9.77;;;15.50;99.90;;;;;;5133214;27;20078;-70
2022/08/19 01:20:23;;;;;;;15.95;10.40;;;15.50;99.90;;;;;;5132673;28;20084;-70
2022/08/19 01:22:53;;;;;;;18.92;8.85;;;15.40;99.90;;;;;;5132936;27;20054;-70
2022/08/19 01:25:22;;;;;;;12.13;8.60;;;15.40;99.90;;;;;;5131579;28;20089;-70
2022/08/19 01:27:50;;;;;;;13.88;9.02;;;15.40;99.90;;;;;;5131101;28;20051;-70
2022/08/19 01:30:28;;;;;;;17.70;9.00;;;15.40;99.90;;;;;;5131556;28;20035;-70
2022/08/19 01:32:55;;;;;;;14.55;9.68;;;15.40;99.90;;;;;;5130999;27;20070;-70
2022/08/19 01:35:23;;;;;;;14.75;8.88;;;15.40;99.90;;;;;;5131394;28;20431;-70
2022/08/19 01:37:55;;;;;;;12.50;8.25;;;15.40;99.90;;;;;;5111064;28;20054;-69
2022/08/19 01:40:23;;;;;;;14.57;8.88;;;15.40;99.90;;;;;;5095258;28;20039;-69
2022/08/19 01:42:50;;;;;;;11.73;8.75;;;15.30;99.90;;;;;;5112744;28;20119;-70
2022/08/19 01:45:18;;;;;;;17.33;9.15;;;15.40;99.90;;;;;;5127720;28;20043;-69
2022/08/19 01:47:44;;;;;;;16.08;9.50;;;15.30;99.90;;;;;;5124015;22;20166;-79
2022/08/19 01:50:11;;;;;;;11.30;9.85;;;15.30;99.90;;;;;;5091240;28;20135;-79
2022/08/19 01:52:39;;;;;;;17.00;11.02;;;15.30;99.90;;;;;;5076425;28;20040;-79
2022/08/19 01:55:06;;;;;;;;;;;15.30;99.90;;;;;;5112629;28;20515;-79
2022/08/19 01:57:32;;;;;;;25.85;12.38;;;15.30;99.90;;;;;;5113449;28;19942;-80
2022/08/19 01:59:59;;;;;;;21.65;13.38;;;15.40;99.90;;;;;;5098492;28;20044;-79
2022/08/19 02:02:25;;;;;;;16.95;12.48;;;15.30;99.90;;;;;;5098094;28;20047;-79
2022/08/19 02:04:51;;;;;;;17.88;11.68;;;15.30;99.90;;;;;;5099365;28;20531;-79
2022/08/19 02:07:21;;;;;;;17.95;11.73;;;15.40;99.90;;;;;;5098463;28;20073;-79
2022/08/19 02:09:47;;;;;;;19.83;11.45;;;15.40;99.90;;;;;;5096538;28;20056;-79
2022/08/19 02:12:14;;;;;;;18.05;11.77;;;15.40;99.90;;;;;;5085199;28;20437;-80
2022/08/19 02:14:40;;;;;;;18.92;11.23;;;15.40;99.90;;;;;;5116202;28;20488;-79
2022/08/19 02:17:07;;;;;;;18.40;11.32;;;15.40;99.90;;;;;;5097687;28;20043;-79
2022/08/19 02:19:33;;;;;;;20.60;10.82;;;15.40;99.90;;;;;;5116533;28;20075;-79
2022/08/19 02:22:00;;;;;;;15.63;10.43;;;15.40;99.90;;;;;;5065185;28;20036;-79
2022/08/19 02:24:28;;;;;;;19.27;10.40;;;15.40;99.90;;;;;;5115831;28;20543;-79
2022/08/19 02:26:54;;;;;;;16.38;9.82;;;15.40;99.90;;;;;;5098495;28;20130;-81
2022/08/19 02:29:21;;;;;;;16.10;9.50;;;15.40;99.90;;;;;;5116265;28;20086;-79
2022/08/19 02:31:47;;;;;;;19.35;10.18;;;15.40;99.90;;;;;;5080197;28;20453;-79
2022/08/19 02:34:12;;;;;;;14.00;9.55;;;15.40;99.90;;;;;;5095842;28;20040;-80
2022/08/19 02:36:38;;;;;;;18.67;9.57;;;15.40;99.90;;;;;;5060608;28;20052;-80
2022/08/19 02:39:04;;;;;;;16.20;10.68;;;15.40;99.90;;;;;;5094618;28;20036;-80
2022/08/19 02:41:32;;;;;;;14.38;9.60;;;15.40;99.90;;;;;;5069969;28;20035;-79
2022/08/19 02:43:59;;;;;;;;;;;15.40;99.90;;;;;;5093566;28;20051;-79
2022/08/19 02:46:29;;;;;;;14.93;10.63;;;15.30;99.90;;;;;;5095646;28;20338;-79
2022/08/19 02:48:57;;;;;;;13.93;9.55;;;15.40;99.90;;;;;;5093609;28;20506;-79
2022/08/19 02:51:26;;;;;;;13.65;10.02;;;15.40;99.90;;;;;;5097401;28;20048;-79
2022/08/19 02:53:53;;;;;;;16.23;9.68;;;15.40;99.90;;;;;;5077602;28;20052;-80
2022/08/19 02:56:20;;;;;;;13.95;9.18;;;15.40;99.90;;;;;;5100214;28;20043;-80
2022/08/19 02:58:46;;;;;;;13.20;9.43;;;15.40;99.90;;;;;;5117765;28;20097;-80
2022/08/19 03:01:29;;;;;;;12.70;8.93;;;15.40;99.90;;;;;;5098029;28;20048;-79
2022/08/19 03:03:59;;;;;;;12.05;9.00;;;15.40;99.90;;;;;;5077072;28;20488;-79
2022/08/19 03:06:26;;;;;;;11.23;8.80;;;15.40;99.90;;;;;;5095422;28;20044;-79
2022/08/19 03:08:53;;;;;;;11.97;9.43;;;15.40;99.90;;;;;;5076778;28;20039;-79
2022/08/19 03:11:23;;;;;;;12.10;9.43;;;15.40;99.90;;;;;;5113103;28;20317;-78
2022/08/19 03:13:50;;;;;;;13.32;9.02;;;15.30;99.90;;;;;;5097526;28;20048;-79
2022/08/19 03:16:16;;;;;;;18.80;8.98;;;15.30;99.90;;;;;;5108461;28;20051;-78
2022/08/19 03:18:42;;;;;;;12.60;9.38;;;15.40;99.90;;;;;;5094552;28;20040;-79
2022/08/19 03:21:08;;;;;;;12.10;8.30;;;15.30;99.90;;;;;;5059829;28;20098;-79
2022/08/19 03:23:35;;;;;;;13.38;8.98;;;15.40;99.90;;;;;;5076830;28;20052;-79
2022/08/19 03:26:05;;;;;;;11.45;8.38;;;15.30;99.90;;;;;;5076827;28;20056;-79
2022/08/19 03:28:32;;;;;;;14.13;8.65;;;15.30;99.90;;;;;;5076574;28;20483;-78
2022/08/19 03:31:08;;;;;;;10.98;8.18;;;15.40;99.90;;;;;;5094736;28;20124;-80
2022/08/19 03:33:35;;;;;;;17.40;9.02;;;15.30;99.90;;;;;;5074489;28;20089;-79
2022/08/19 03:36:10;;;;;;;15.63;8.63;;;15.30;99.90;;;;;;5094833;28;20104;-79
2022/08/19 03:38:48;;;;;;;10.27;8.45;;;15.30;99.90;;;;;;5076486;28;20044;-80
2022/08/19 03:41:16;;;;;;;10.45;8.07;;;15.30;99.90;;;;;;5084082;28;20042;-79
2022/08/19 03:43:46;;;;;;;14.00;8.55;;;15.30;99.90;;;;;;5096113;28;20122;-79
2022/08/19 03:46:15;;;;;;;15.98;8.77;;;15.30;99.90;;;;;;5091843;28;20519;-79
2022/08/19 03:48:42;;;;;;;11.02;8.18;;;15.30;99.90;;;;;;5111887;28;20483;-78
2022/08/19 03:51:15;;;;;;;13.85;9.13;;;15.30;99.90;;;;;;5112259;28;20412;-79
2022/08/19 03:53:40;;;;;;;12.57;8.95;;;15.30;99.90;;;;;;5076047;28;20047;-80
2022/08/19 03:56:09;;;;;;;13.68;8.82;;;15.30;99.90;;;;;;5093951;28;20040;-79
2022/08/19 03:58:35;;;;;;;11.18;8.50;;;15.30;99.90;;;;;;5075904;28;20052;-80
2022/08/19 04:01:00;;;;;;;11.63;8.60;;;15.30;99.90;;;;;;5102882;28;20149;-79
2022/08/19 04:03:26;;;;;;;13.65;9.27;;;15.20;99.90;;;;;;5114713;28;20048;-78
2022/08/19 04:05:53;;;;;;;14.57;9.43;;;15.20;99.90;;;;;;5077038;28;20492;-79
2022/08/19 04:08:22;;;;;;;12.82;9.23;;;15.20;99.90;;;;;;5094072;28;20052;-80
2022/08/19 04:10:49;;;;;;;15.25;9.80;;;15.20;99.90;;;;;;5094273;28;20040;-80
2022/08/19 04:13:16;;;;;;;11.98;9.13;;;15.30;99.90;;;;;;5094206;28;20044;-79
2022/08/19 04:15:46;;;;;;;14.43;9.23;;;15.20;99.90;;;;;;5094013;28;20032;-80
2022/08/19 04:18:12;;;;;;;13.77;8.85;;;15.30;99.90;;;;;;5075116;28;20036;-80
2022/08/19 04:20:45;;;;;;;13.80;9.23;;;15.30;99.90;;;;;;5093421;28;20044;-78
2022/08/19 04:23:13;;;;;;;12.55;8.95;;;15.30;99.90;;;;;;5109259;28;20046;-78
2022/08/19 04:25:41;;;;;;;11.68;9.07;;;15.20;99.90;;;;;;5113791;28;20036;-79
2022/08/19 04:28:09;;;;;;;13.93;9.48;;;15.20;99.90;;;;;;5114086;28;20107;-78
2022/08/19 04:30:47;;;;;;;13.45;10.13;;;15.20;99.90;;;;;;5095550;28;20216;-79
2022/08/19 04:33:15;;;;;;;23.23;10.23;;;15.20;99.90;;;;;;5093794;28;20392;-78
2022/08/19 04:35:43;;;;;;;20.83;10.68;;;15.20;99.90;;;;;;5093821;28;20270;-78
2022/08/19 04:38:10;;;;;;;15.63;10.43;;;15.20;99.90;;;;;;5102894;28;20406;-78
2022/08/19 04:43:26;;;;;;;15.90;10.43;;;15.20;99.90;;;;;;5111419;28;20101;-78
2022/08/19 04:45:52;;;;;;;13.15;9.80;;;15.20;99.90;;;;;;5113418;28;20521;-78
2022/08/19 04:48:25;;;;;;;15.75;9.98;;;15.20;99.90;;;;;;5096309;28;20046;-79
2022/08/19 04:50:57;;;;;;;19.48;10.25;;;15.20;99.90;;;;;;5095864;28;20035;-79
2022/08/19 04:53:31;;;;;;;14.15;9.68;;;15.20;99.90;;;;;;5109849;28;20035;-78
2022/08/19 04:55:58;;;;;;;15.98;10.18;;;15.20;99.90;;;;;;5075045;28;20123;-78
2022/08/19 04:58:26;;;;;;;14.10;9.68;;;15.20;99.90;;;;;;5101566;28;20040;-80
2022/08/19 05:00:52;;;;;;;17.05;10.93;;;15.20;99.90;;;;;;5095432;28;20510;-79
2022/08/19 05:03:18;;;;;;;17.85;10.77;;;15.20;99.90;;;;;;5093287;28;20051;-80
2022/08/19 05:05:50;;;;;;;16.40;10.85;;;15.20;99.90;;;;;;5093295;28;20036;-79
2022/08/19 05:08:20;;;;;;;16.75;10.82;;;15.20;99.90;;;;;;5075338;28;20392;-80
2022/08/19 05:10:48;;;;;;;17.65;11.68;;;15.30;99.90;;;;;;5093927;28;20485;-79
2022/08/19 05:13:16;;;;;;;15.75;11.50;;;15.20;99.90;;;;;;5093509;28;20143;-79
2022/08/19 05:15:42;;;;;;;13.77;9.73;;;15.40;99.90;;;;;;5075129;28;20087;-79
2022/08/19 05:23:37;;;;;;;14.77;10.82;;;15.50;99.90;;;;;;5095938;28;20101;-80
2022/08/19 05:26:03;;;;;;;14.07;9.40;;;15.50;99.90;;;;;;5106711;28;20040;-79
2022/08/19 05:28:29;;;;;;;16.52;11.20;;;15.50;99.90;;;;;;5075141;28;20050;-79
2022/08/19 05:30:55;;;;;;;18.08;11.48;;;15.50;99.90;;;;;;5095924;28;20435;-80
2022/08/19 05:33:22;;;;;;;16.98;11.15;;;15.60;99.90;;;;;;5097500;28;20042;-79
2022/08/19 05:35:49;;;;;;;16.70;11.43;;;15.70;99.90;;;;;;5095989;28;20078;-80
2022/08/19 05:38:18;;;;;;;18.70;11.73;;;15.80;99.90;;;;;;5115812;28;20043;-78
2022/08/19 05:40:47;;;;;;;21.88;12.70;;;15.90;99.90;;;;;;5098693;28;20043;-79
2022/08/19 05:43:17;;;;;;;20.55;12.90;;;16.00;99.90;;;;;;5117788;28;20043;-79
2022/08/19 05:45:43;;;;;;;20.77;12.88;;;16.30;99.90;;;;;;5099514;28;20115;-79
2022/08/19 05:48:10;;;;;;;17.70;12.48;;;16.40;99.90;;;;;;5060337;28;20048;-80
2022/08/19 05:50:38;;;;;;;16.70;12.50;;;16.50;99.90;;;;;;5075569;28;20111;-79
2022/08/19 05:53:04;;;;;;;18.88;12.30;;;16.60;99.90;;;;;;5059183;28;20044;-80
2022/08/19 05:55:30;;;;;;;19.95;11.93;;;16.50;99.90;;;;;;5076138;28;20059;-79
2022/08/19 05:57:56;;;;;;;20.23;12.48;;;16.60;99.90;;;;;;5076932;28;20056;-79
2022/08/19 06:00:22;;;;;;;18.02;11.00;;;16.70;99.90;;;;;;5075945;28;20056;-79
2022/08/19 06:02:48;;;;;;;16.55;11.60;;;16.80;99.90;;;;;;5076777;28;20406;-79
2022/08/19 06:05:14;;;;;;;20.58;12.38;;;16.80;99.90;;;;;;5073458;28;20048;-80
2022/08/19 06:07:40;;;;;;;20.20;12.18;;;16.90;99.90;;;;;;5072695;28;20076;-79
2022/08/19 06:10:08;;;;;;;18.50;11.23;;;16.90;99.90;;;;;;5056053;28;20048;-79
2022/08/19 06:12:35;;;;;;;;;;;17.00;99.90;;;;;;5057730;28;20056;-79
2022/08/19 06:15:11;;;;;;;16.88;11.13;;;17.20;99.90;;;;;;5038973;28;19921;-79
2022/08/19 06:17:37;;;;;;;16.33;10.93;;;17.30;99.90;;;;;;5057660;28;20048;-80
2022/08/19 06:20:12;;;;;;;15.07;11.48;;;17.40;99.90;;;;;;5055225;28;20056;-79
2022/08/19 06:22:43;;;;;;;15.02;10.85;;;17.60;99.90;;;;;;5057703;28;20518;-80
2022/08/19 06:25:10;;;;;;;16.48;10.70;;;17.80;99.90;;;;;;5056144;28;20052;-80
2022/08/19 06:27:37;;;;;;;16.07;9.80;;;18.20;99.90;;;;;;5057190;28;20489;-80
2022/08/19 06:30:04;;;;;;;14.48;9.75;;;18.70;99.90;;;;;;5057091;28;20037;-80
2022/08/19 06:32:30;;;;;;;13.75;8.95;;;19.30;99.90;;;;;;5056053;28;20055;-80
2022/08/19 06:34:55;;;;;;;10.63;8.40;;;19.80;99.90;;;;;;5056533;28;20123;-80
2022/08/19 06:37:21;;;;;;;13.75;8.68;;;20.30;99.90;;;;;;5037757;28;20049;-79
2022/08/19 06:39:48;;;;;;;13.18;8.20;;;20.60;99.90;;;;;;5066225;28;20045;-80
2022/08/19 06:42:16;;;;;;;12.73;7.38;;;21.00;99.90;;;;;;5059513;28;20040;-79
2022/08/19 06:44:43;;;;;;;13.18;7.63;;;21.30;99.90;;;;;;5056328;28;20049;-80
2022/08/19 06:47:11;;;;;;;;;;;21.60;99.90;;;;;;5081120;28;20395;-80
2022/08/19 06:49:37;;;;;;;11.10;7.20;;;21.70;99.90;;;;;;5111368;28;19920;-78
2022/08/19 06:52:04;;;;;;;10.48;7.20;;;21.70;99.90;;;;;;5118269;28;20097;-80
2022/08/19 06:54:30;;;;;;;12.83;7.33;;;21.50;99.90;;;;;;5118191;28;20048;-79
2022/08/19 06:57:01;;;;;;;9.40;7.05;;;21.40;99.90;;;;;;5101908;28;20294;-78
2022/08/19 06:59:32;;;;;;;9.20;7.10;;;21.30;99.90;;;;;;5126728;22;20048;-68
2022/08/19 07:02:00;;;;;;;9.88;6.78;;;21.40;99.90;;;;;;5093628;28;20123;-68
2022/08/19 07:04:31;;;;;;;9.57;7.10;;;21.50;99.90;;;;;;5086804;28;20059;-68
2022/08/19 07:07:06;;;;;;;11.50;7.60;;;21.40;99.90;;;;;;5090772;28;20048;-67
2022/08/19 07:09:32;;;;;;;12.73;7.13;;;21.40;99.90;;;;;;5079723;28;20119;-67
2022/08/19 07:11:57;;;;;;;11.43;6.88;;;21.30;99.90;;;;;;5077991;28;20045;-67
2022/08/19 07:14:27;;;;;;;9.15;6.68;;;21.20;99.90;;;;;;5080250;28;20120;-69
2022/08/19 07:16:55;;;;;;;10.63;7.10;;;21.20;99.90;;;;;;5050975;28;20487;-68
2022/08/19 07:19:21;;;;;;;9.10;6.93;;;21.20;99.90;;;;;;5059270;28;20069;-68
2022/08/19 07:21:52;;;;;;;13.03;7.60;;;21.20;99.90;;;;;;5058825;28;20045;-67
2022/08/19 07:24:18;;;;;;;11.13;7.68;;;21.20;99.90;;;;;;5058676;28;20044;-67
2022/08/19 07:26:45;;;;;;;11.20;7.82;;;21.20;99.90;;;;;;5058966;28;20044;-68
2022/08/19 07:29:11;;;;;;;14.82;7.63;;;21.20;99.90;;;;;;5057570;28;20041;-68
2022/08/19 07:31:37;;;;;;;12.30;7.10;;;21.20;99.90;;;;;;5058420;28;20041;-68
2022/08/19 07:34:11;;;;;;;9.52;6.97;;;21.30;99.90;;;;;;5044937;28;20084;-68
2022/08/19 07:36:38;;;;;;;9.93;7.13;;;21.30;99.90;;;;;;5073212;28;20300;-68
2022/08/19 07:39:12;;;;;;;9.73;7.28;;;21.30;99.90;;;;;;5083214;28;20040;-68
2022/08/19 07:41:39;;;;;;;11.88;7.38;;;21.40;99.90;;;;;;5081582;28;20048;-68
2022/08/19 07:44:07;;;;;;;11.05;6.82;;;21.50;99.90;;;;;;5072672;28;20052;-69
2022/08/19 07:46:39;;;;;;;9.10;7.13;;;21.60;99.90;;;;;;5064532;28;20432;-68
2022/08/19 07:49:06;;;;;;;9.00;6.97;;;21.70;99.90;;;;;;5059865;28;20408;-69
2022/08/19 07:51:33;;;;;;;11.55;6.82;;;21.80;99.90;;;;;;5057612;28;20500;-68
2022/08/19 07:53:59;;;;;;;9.85;7.38;;;21.90;99.90;;;;;;5042573;28;20045;-67
2022/08/19 07:56:25;;;;;;;10.50;7.18;;;22.00;99.90;;;;;;5041297;28;20048;-68
2022/08/19 07:58:52;;;;;;;10.90;6.88;;;22.10;99.90;;;;;;5055298;28;20072;-68
2022/08/19 08:01:22;;;;;;;13.00;7.30;;;22.20;99.90;;;;;;5047016;28;20041;-68
2022/08/19 08:09:31;;;;;;;8.27;7.00;;;22.60;99.90;;;;;;5054825;28;20056;-69
2022/08/19 08:12:05;;;;;;;10.00;7.25;;;22.80;99.90;;;;;;5054033;28;20110;-69
2022/08/19 08:14:36;;;;;;;10.15;7.45;;;22.90;99.90;;;;;;5034559;28;20041;-68
2022/08/19 08:17:04;;;;;;;13.65;8.55;;;23.10;99.90;;;;;;5036308;28;20045;-68
2022/08/19 08:19:30;;;;;;;;;;;23.20;99.90;;;;;;5035512;28;20056;-69
2022/08/19 08:21:57;;;;;;;10.23;7.50;;;23.20;99.90;;;;;;5034811;28;19932;-68
2022/08/19 08:24:25;;;;;;;9.60;7.40;;;23.30;99.90;;;;;;5037993;28;20097;-67
2022/08/19 08:26:50;;;;;;;10.25;7.07;;;23.40;99.90;;;;;;5018295;28;20053;-68
2022/08/19 08:29:16;;;;;;;8.30;7.13;;;23.40;99.90;;;;;;5036032;28;20034;-68
2022/08/19 08:31:43;;;;;;;9.68;6.82;;;23.50;99.90;;;;;;5037432;28;20037;-68
2022/08/19 08:34:10;;;;;;;7.30;5.40;;;23.60;99.90;;;;;;5037014;28;20507;-69
2022/08/19 08:36:44;;;;;;;9.05;6.50;;;23.70;99.90;;;;;;5040311;28;20123;-68
2022/08/19 08:39:13;;;;;;;7.93;5.60;;;23.80;99.90;;;;;;5036736;28;20369;-68
2022/08/19 08:42:05;;;;;;;11.85;6.18;;;23.90;99.90;;;;;;5019860;28;20049;-69
2022/08/19 08:45:04;;;;;;;8.32;6.25;;;24.00;99.90;;;;;;5037711;28;20083;-68
2022/08/19 08:47:36;;;;;;;8.48;6.82;;;24.10;99.90;;;;;;5008696;28;20570;-68
2022/08/19 08:50:25;;;;;;;13.05;8.70;;;24.20;99.90;;;;;;5035354;28;20069;-68
2022/08/19 08:52:55;;;;;;;9.43;7.88;;;24.40;99.90;;;;;;5034983;28;20088;-67
2022/08/19 08:55:24;;;;;;;12.70;8.68;;;24.40;99.90;;;;;;5037643;28;20029;-68
2022/08/19 08:57:58;;;;;;;10.57;8.27;;;24.30;99.90;;;;;;5036731;28;20576;-69
2022/08/19 09:00:31;;;;;;;9.88;8.30;;;24.30;99.90;;;;;;5030001;28;20091;-69
2022/08/19 09:03:01;;;;;;;10.60;8.80;;;24.50;99.90;;;;;;5054768;28;20071;-68
2022/08/19 09:05:56;;;;;;;10.18;8.23;;;24.60;99.90;;;;;;5056917;28;20049;-68
2022/08/19 09:08:28;;;;;;;12.93;8.50;;;24.70;99.90;;;;;;5053941;28;20056;-69
2022/08/19 09:10:56;;;;;;;14.25;7.90;;;24.90;99.90;;;;;;5036679;28;20049;-69
2022/08/19 09:13:44;;;;;;;10.60;8.63;;;25.00;99.90;;;;;;5020848;28;20049;-68
2022/08/19 09:16:17;;;;;;;11.18;8.70;;;25.10;99.90;;;;;;5039718;28;20143;-69
2022/08/19 09:18:45;;;;;;;9.60;8.60;;;25.20;99.90;;;;;;5021618;28;20056;-69
2022/08/19 09:21:10;;;;;;;12.95;9.73;;;25.30;99.90;;;;;;5038128;28;20052;-69
2022/08/19 09:23:37;;;;;;;10.85;8.38;;;25.30;99.90;;;;;;5038895;28;20041;-68
2022/08/19 09:26:08;;;;;;;9.70;8.43;;;25.40;99.90;;;;;;5040316;28;20041;-68
2022/08/19 09:28:34;;;;;;;13.18;7.60;;;25.40;99.90;;;;;;5037998;28;20045;-69
2022/08/19 09:31:03;;;;;;;12.85;9.50;;;25.40;99.90;;;;;;5037991;28;20055;-69
2022/08/19 09:33:29;;;;;;;10.65;6.78;;;25.50;99.90;;;;;;5038231;28;20041;-68
2022/08/19 09:36:06;;;;;;;9.43;6.32;;;25.70;99.90;;;;;;5037808;28;20526;-68
2022/08/19 09:38:33;;;;;;;8.63;6.32;;;25.90;99.90;;;;;;5021976;28;20488;-69
2022/08/19 09:41:04;;;;;;;7.90;6.57;;;26.00;99.90;;;;;;5044215;28;20037;-69
2022/08/19 09:43:30;;;;;;;11.23;6.82;;;26.00;99.90;;;;;;5058135;28;20507;-68
2022/08/19 09:45:57;;;;;;;12.70;6.43;;;26.10;99.90;;;;;;5057799;28;20924;-68
2022/08/19 09:48:22;;;;;;;9.70;7.13;;;26.10;99.90;;;;;;5037791;28;20037;-68
2022/08/19 09:50:50;;;;;;;9.35;7.05;;;26.00;99.90;;;;;;5039046;28;20125;-69
2022/08/19 09:53:16;;;;;;;10.05;7.85;;;26.10;99.90;;;;;;5038962;28;20045;-69
2022/08/19 09:55:43;;;;;;;9.52;6.93;;;26.10;99.90;;;;;;5039143;28;20488;-70
2022/08/19 09:58:08;;;;;;;10.20;8.10;;;26.10;99.30;;;;;;5038792;28;20037;-68
2022/08/19 10:00:37;;;;;;;11.10;7.70;;;26.00;99.90;;;;;;5039297;28;20052;-68
2022/08/19 10:03:03;;;;;;;9.07;7.68;;;26.20;99.90;;;;;;5084338;28;20073;-72
2022/08/19 10:08:13;;;;;;;7.90;6.63;;;26.20;98.60;;;;;;5058713;28;20051;-70
2022/08/19 10:10:45;;;;;;;8.90;6.93;;;26.20;99.90;;;;;;5067259;28;20032;-70
2022/08/19 10:13:11;;;;;;;13.48;7.80;;;26.30;99.90;;;;;;5063738;28;20055;-70
2022/08/19 10:15:39;;;;;;;11.82;8.10;;;26.50;99.10;;;;;;5058824;28;20098;-70
2022/08/19 10:18:05;;;;;;;10.32;8.10;;;26.50;98.70;;;;;;5062623;28;20049;-71
2022/08/19 10:20:31;;;;;;;9.32;7.97;;;26.50;98.00;;;;;;5080141;28;20040;-70
2022/08/19 10:22:59;;;;;;;13.52;8.23;;;26.40;97.80;;;;;;5061543;28;20048;-70
2022/08/19 10:25:26;;;;;;;;;;;26.40;98.40;;;;;;5069372;28;20076;-71
2022/08/19 10:27:51;;;;;;;12.00;8.77;;;26.40;98.60;;;;;;5059282;28;19967;-71
2022/08/19 10:30:17;;;;;;;12.70;9.32;;;26.50;98.20;;;;;;5023730;28;20045;-71
2022/08/19 10:32:45;;;;;;;9.65;8.18;;;26.60;97.70;;;;;;5059361;28;20041;-68
2022/08/19 10:35:12;;;;;;;12.43;8.75;;;26.60;97.40;;;;;;5056705;28;20049;-68
2022/08/19 10:37:39;;;;;;;24.23;8.68;;;26.70;97.30;;;;;;5076829;28;20040;-70
2022/08/19 10:40:07;;;;;;;10.27;8.18;;;26.80;97.40;;;;;;5078452;28;20045;-70
2022/08/19 10:42:34;;;;;;;11.27;8.45;;;26.90;97.10;;;;;;5059806;28;20044;-69
2022/08/19 10:45:01;;;;;;;10.02;7.60;;;26.90;97.10;;;;;;5076124;28;20047;-68
2022/08/19 10:47:27;;;;;;;9.30;7.95;;;26.90;98.20;;;;;;5060053;28;20120;-68
2022/08/19 10:52:43;;;;;;;10.73;8.38;;;27.60;99.20;;;;;;5038884;28;20060;-69
2022/08/19 10:57:53;;;;;;;10.48;8.90;;;27.80;96.40;;;;;;5056105;28;20056;-68
2022/08/19 11:00:23;;;;;;;12.90;8.35;;;27.90;97.20;;;;;;5044804;28;20049;-68
2022/08/19 11:02:49;;;;;;;9.77;7.30;;;28.20;97.50;;;;;;5056431;28;20389;-69
2022/08/19 11:05:15;;;;;;;8.45;7.43;;;28.60;97.30;;;;;;5057748;28;20047;-68
2022/08/19 11:07:41;;;;;;;8.52;7.72;;;28.70;96.50;;;;;;5055080;28;20075;-71
2022/08/19 11:10:09;;;;;;;12.70;8.82;;;28.80;95.80;;;;;;5037396;28;20044;-68
2022/08/19 11:12:40;;;;;;;11.30;8.70;;;29.00;95.20;;;;;;5047228;28;20049;-70
2022/08/19 11:15:10;;;;;;;14.88;7.38;;;29.20;94.50;;;;;;5056761;28;20049;-69
2022/08/19 11:17:43;;;;;;;12.15;6.70;;;29.40;94.10;;;;;;5055456;28;20444;-69
2022/08/19 11:20:12;;;;;;;10.15;8.32;;;29.60;94.40;;;;;;5056737;28;20048;-70
2022/08/19 11:22:38;;;;;;;9.23;7.22;;;29.80;94.50;;;;;;5037471;28;20083;-69
2022/08/19 11:25:04;;;;;;;11.10;8.02;;;30.00;93.70;;;;;;5018136;28;20049;-69
2022/08/19 11:27:30;;;;;;;9.65;7.20;;;30.10;93.90;;;;;;5036474;28;20154;-69
2022/08/19 11:29:56;;;;;;;13.37;8.00;;;30.30;93.50;;;;;;5017555;28;20053;-69
2022/08/19 11:32:22;;;;;;;7.95;6.47;;;30.40;92.90;;;;;;5036683;28;20034;-69
2022/08/19 11:34:47;;;;;;;9.82;7.50;;;30.40;92.50;;;;;;5035505;28;20455;-69
2022/08/19 11:37:13;;;;;;;12.73;8.60;;;30.40;91.80;;;;;;5035728;28;20041;-69
2022/08/19 11:39:39;;;;;;;11.80;7.80;;;30.20;91.90;;;;;;5035214;28;20091;-69
2022/08/19 11:42:54;;;;;;;7.95;7.15;;;30.30;92.50;;;;;;5016500;28;20041;-69
2022/08/19 11:44:52;;;;;;;13.65;8.65;;;30.20;91.70;;;;;;5034943;28;20095;-69
2022/08/19 11:47:18;;;;;;;9.85;8.48;;;29.90;91.40;;;;;;5034704;28;20046;-69
2022/08/19 11:49:46;;;;;;;8.43;7.63;;;29.90;91.10;;;;;;5035325;28;20400;-69
2022/08/19 11:52:12;;;;;;;8.63;7.63;;;29.50;92.00;;;;;;5026428;28;20041;-69
2022/08/19 11:54:37;;;;;;;8.68;7.22;;;29.20;92.50;;;;;;5016855;28;20044;-68
2022/08/19 11:57:04;;;;;;;10.45;7.53;;;28.90;92.30;;;;;;5036576;28;20041;-68
2022/08/19 11:59:29;;;;;;;9.73;8.38;;;28.70;91.90;;;;;;5035010;28;20175;-69
2022/08/19 12:01:55;;;;;;;12.10;8.68;;;28.50;91.50;;;;;;5049731;28;20080;-68
2022/08/19 12:04:22;;;;;;;8.15;6.95;;;28.20;91.70;;;;;;5052987;28;20126;-69
2022/08/19 12:06:49;;;;;;;11.20;7.50;;;27.80;92.80;;;;;;5036489;28;20570;-69
2022/08/19 12:09:17;;;;;;;9.85;8.48;;;27.70;93.20;;;;;;5033132;28;20779;-69
2022/08/19 12:11:43;;;;;;;9.85;8.18;;;27.60;93.60;;;;;;5035379;28;20059;-69
2022/08/19 12:14:11;;;;;;;10.18;8.65;;;27.60;93.70;;;;;;5035343;28;20120;-69
2022/08/19 12:16:37;;;;;;;10.35;8.07;;;27.60;93.60;;;;;;5035280;28;20053;-70
2022/08/19 12:19:04;;;;;;;10.15;7.60;;;27.40;93.90;;;;;;5016573;28;20053;-69
2022/08/19 12:21:32;;;;;;;11.45;7.90;;;27.40;94.30;;;;;;5035456;28;20124;-69
2022/08/19 12:24:00;;;;;;;8.57;7.13;;;27.40;94.10;;;;;;5034173;28;20068;-69
2022/08/19 12:26:27;;;;;;;9.25;7.65;;;27.40;94.20;;;;;;5035769;28;20045;-69
2022/08/19 12:28:52;;;;;;;;;;;27.50;93.30;;;;;;5033764;28;20046;-71
2022/08/19 12:31:19;;;;;;;9.23;6.95;;;27.50;93.90;;;;;;5034483;28;19959;-69
2022/08/19 12:33:46;;;;;;;11.82;8.27;;;27.50;94.00;;;;;;5035737;28;20052;-70
2022/08/19 12:36:17;;;;;;;12.80;8.23;;;27.50;93.00;;;;;;5033998;28;20164;-70
2022/08/19 12:38:43;;;;;;;9.75;8.68;;;27.30;93.40;;;;;;5034408;28;20076;-70
2022/08/19 12:41:13;;;;;;;12.87;8.03;;;27.20;94.00;;;;;;5032926;28;20041;-70
2022/08/19 12:43:39;;;;;;;13.57;7.75;;;27.10;94.30;;;;;;5038659;28;20094;-69
2022/08/19 12:46:06;;;;;;;9.65;7.45;;;27.20;95.10;;;;;;5055652;28;20040;-70
2022/08/19 12:48:33;;;;;;;14.63;8.98;;;27.30;95.20;;;;;;5056665;28;20040;-71
2022/08/19 12:50:59;;;;;;;13.68;8.48;;;27.40;94.10;;;;;;5054828;28;20037;-68
2022/08/19 12:53:25;;;;;;;8.57;6.80;;;27.50;93.90;;;;;;5054487;28;20146;-69
2022/08/19 12:55:59;;;;;;;11.13;8.02;;;27.40;94.00;;;;;;5054218;28;20075;-68
2022/08/19 12:58:25;;;;;;;9.85;7.00;;;27.40;93.90;;;;;;5017677;28;20136;-69
2022/08/19 13:00:51;;;;;;;10.60;7.53;;;27.30;94.10;;;;;;5039799;28;20045;-69
2022/08/19 13:03:17;;;;;;;12.05;6.88;;;27.30;93.90;;;;;;5037180;28;20042;-69
2022/08/19 13:05:43;;;;;;;10.95;7.18;;;27.20;93.90;;;;;;5034613;28;20515;-69